createdAt,value
2022-09-22T00:01:29.384Z,7.53
2022-09-22T00:04:04.396Z,6.90
2022-09-22T00:06:35.416Z,7.70
2022-09-22T00:09:03.625Z,7.53
2022-09-22T00:11:36.117Z,7.30
2022-09-22T00:14:20.204Z,8.10
2022-09-22T00:16:55.459Z,8.00
2022-09-22T00:19:29.571Z,7.43
2022-09-22T00:21:57.503Z,7.55
2022-09-22T00:24:27.040Z,7.40
2022-09-22T00:26:57.598Z,7.35
2022-09-22T00:29:27.406Z,7.20
2022-09-22T00:31:57.262Z,7.50
2022-09-22T00:34:26.638Z,7.53
2022-09-22T00:36:54.644Z,7.70
2022-09-22T00:39:22.149Z,8.02
2022-09-22T00:41:51.911Z,6.60
2022-09-22T00:44:34.144Z,7.28
2022-09-22T00:47:05.844Z,7.53
2022-09-22T00:49:36.124Z,7.38
2022-09-22T00:52:04.396Z,7.60
2022-09-22T00:54:32.884Z,7.97
2022-09-22T00:57:09.423Z,6.68
2022-09-22T00:59:37.792Z,6.93
2022-09-22T01:02:06.093Z,7.10
2022-09-22T01:04:33.799Z,8.00
2022-09-22T01:07:02.722Z,7.90
2022-09-22T01:09:33.095Z,7.78
2022-09-22T01:12:05.395Z,7.43
2022-09-22T01:14:46.515Z,7.30
2022-09-22T01:17:57.703Z,7.30
2022-09-22T01:20:51.640Z,7.28
2022-09-22T01:23:36.869Z,7.18
2022-09-22T01:26:48.548Z,6.82
2022-09-22T01:29:34.661Z,6.82
2022-09-22T01:32:23.906Z,7.30
2022-09-22T01:35:23.327Z,6.68
2022-09-22T01:37:58.918Z,7.18
2022-09-22T01:40:42.731Z,7.05
2022-09-22T01:43:22.115Z,7.38
2022-09-22T01:45:51.896Z,6.65
2022-09-22T01:48:30.844Z,7.70
2022-09-22T01:51:04.458Z,7.35
2022-09-22T01:53:48.375Z,7.65
2022-09-22T01:56:20.782Z,7.43
2022-09-22T01:58:55.463Z,7.57
2022-09-22T02:01:28.702Z,7.57
2022-09-22T02:04:07.071Z,7.57
2022-09-22T02:06:44.118Z,7.97
2022-09-22T02:09:16.172Z,8.83
2022-09-22T02:11:43.847Z,8.30
2022-09-22T02:14:12.319Z,8.32
2022-09-22T02:16:40.017Z,8.77
2022-09-22T02:19:24.206Z,8.88
2022-09-22T02:21:51.710Z,9.10
2022-09-22T02:24:33.085Z,9.48
2022-09-22T02:27:20.592Z,9.23
2022-09-22T02:29:57.619Z,8.98
2022-09-22T02:32:25.857Z,8.48
2022-09-22T02:34:55.194Z,9.05
2022-09-22T02:37:42.187Z,8.95
2022-09-22T02:40:32.778Z,8.70
2022-09-22T02:43:21.567Z,9.23
2022-09-22T02:46:00.867Z,9.20
2022-09-22T02:48:36.839Z,9.40
2022-09-22T02:51:05.029Z,8.95
2022-09-22T02:56:03.409Z,9.27
2022-09-22T02:58:30.827Z,9.55
2022-09-22T03:00:59.422Z,9.63
2022-09-22T03:03:26.917Z,9.57
2022-09-22T03:05:54.347Z,9.05
2022-09-22T03:08:21.921Z,9.63
2022-09-22T03:10:49.367Z,9.63
2022-09-22T03:13:17.679Z,9.93
2022-09-22T03:15:46.436Z,9.55
2022-09-22T03:18:14.616Z,8.98
2022-09-22T03:23:10.291Z,9.00
2022-09-22T03:28:05.211Z,9.63
2022-09-22T03:30:32.843Z,9.45
2022-09-22T03:33:00.412Z,9.82
2022-09-22T03:35:27.833Z,9.15
2022-09-22T03:37:55.312Z,9.25
2022-09-22T03:40:23.269Z,9.75
2022-09-22T03:42:51.178Z,8.32
2022-09-22T03:45:18.679Z,9.15
2022-09-22T03:47:46.592Z,8.45
2022-09-22T03:50:14.202Z,8.68
2022-09-22T03:52:43.837Z,8.90
2022-09-22T03:55:12.192Z,8.18
2022-09-22T03:57:40.864Z,8.32
2022-09-22T04:00:08.985Z,7.63
2022-09-22T04:02:43.563Z,7.68
2022-09-22T04:05:11.737Z,7.85
2022-09-22T04:07:39.300Z,7.75
2022-09-22T04:10:07.778Z,7.85
2022-09-22T04:12:35.227Z,7.40
2022-09-22T04:15:02.725Z,7.30
2022-09-22T04:17:30.211Z,7.70
2022-09-22T04:19:57.943Z,7.63
2022-09-22T04:22:25.459Z,7.45
2022-09-22T04:24:52.872Z,7.32
2022-09-22T04:27:21.206Z,7.28
2022-09-22T04:29:49.409Z,6.85
2022-09-22T04:32:18.186Z,7.20
2022-09-22T04:34:45.761Z,7.22
2022-09-22T04:37:13.629Z,7.47
2022-09-22T04:39:41.358Z,6.72
2022-09-22T04:42:09.171Z,6.88
2022-09-22T04:44:36.741Z,7.13
2022-09-22T04:47:04.784Z,6.80
2022-09-22T04:49:32.269Z,6.78
2022-09-22T04:52:00.064Z,6.80
2022-09-22T04:54:27.526Z,6.28
2022-09-22T04:56:54.950Z,6.22
2022-09-22T04:59:22.474Z,6.70
2022-09-22T05:01:49.930Z,6.90
2022-09-22T05:04:18.079Z,6.38
2022-09-22T05:09:13.030Z,6.07
2022-09-22T05:11:40.763Z,6.28
2022-09-22T05:14:08.375Z,5.95
2022-09-22T05:16:36.140Z,5.75
2022-09-22T05:19:03.684Z,5.40
2022-09-22T05:21:31.326Z,5.22
2022-09-22T05:23:59.427Z,4.90
2022-09-22T05:26:27.172Z,4.90
2022-09-22T05:28:54.654Z,5.22
2022-09-22T05:31:22.134Z,5.28
2022-09-22T05:33:49.787Z,5.35
2022-09-22T05:36:17.381Z,4.90
2022-09-22T05:38:44.799Z,5.18
2022-09-22T05:41:12.224Z,5.30
2022-09-22T05:43:39.689Z,5.25
2022-09-22T05:46:08.035Z,4.53
2022-09-22T05:48:35.574Z,4.40
2022-09-22T05:51:03.217Z,5.40
2022-09-22T05:53:30.636Z,5.05
2022-09-22T05:56:00.037Z,4.47
2022-09-22T05:58:27.735Z,4.80
2022-09-22T06:00:58.117Z,4.75
2022-09-22T06:03:25.946Z,5.35
2022-09-22T06:05:53.531Z,5.38
2022-09-22T06:08:20.999Z,5.18
2022-09-22T06:10:51.355Z,5.07
2022-09-22T06:13:18.913Z,5.30
2022-09-22T06:15:48.608Z,5.10
2022-09-22T06:18:24.551Z,5.50
2022-09-22T06:20:56.302Z,5.18
2022-09-22T06:23:25.766Z,5.43
2022-09-22T06:25:58.300Z,4.53
2022-09-22T06:28:28.648Z,4.70
2022-09-22T06:31:00.555Z,4.65
2022-09-22T06:33:29.271Z,5.28
2022-09-22T06:35:58.164Z,4.70
2022-09-22T06:38:25.684Z,4.65
2022-09-22T06:40:58.211Z,4.32
2022-09-22T06:43:25.657Z,4.65
2022-09-22T06:45:53.289Z,4.25
2022-09-22T06:48:24.248Z,4.22
2022-09-22T06:50:53.718Z,4.50
2022-09-22T06:53:24.685Z,4.50
2022-09-22T06:55:54.407Z,4.28
2022-09-22T06:58:22.337Z,4.20
2022-09-22T07:00:50.522Z,4.93
2022-09-22T07:06:02.767Z,5.93
2022-09-22T07:08:33.178Z,4.93
2022-09-22T07:11:03.810Z,5.07
2022-09-22T07:13:32.230Z,4.82
2022-09-22T07:16:11.582Z,5.30
2022-09-22T07:18:41.383Z,5.20
2022-09-22T07:21:12.270Z,4.95
2022-09-22T07:23:40.873Z,4.85
2022-09-22T07:26:12.186Z,4.43
2022-09-22T07:28:40.507Z,4.45
2022-09-22T07:33:38.446Z,3.60
2022-09-22T07:36:14.769Z,4.25
2022-09-22T07:38:44.516Z,4.50
2022-09-22T07:41:14.214Z,4.50
2022-09-22T07:43:42.497Z,5.07
2022-09-22T07:48:37.934Z,5.35
2022-09-22T07:51:15.726Z,5.13
2022-09-22T07:53:45.793Z,5.07
2022-09-22T07:56:16.691Z,5.20
2022-09-22T07:58:50.250Z,5.38
2022-09-22T08:01:20.053Z,5.32
2022-09-22T08:03:47.857Z,6.03
2022-09-22T08:06:18.465Z,6.00
2022-09-22T08:08:49.768Z,5.93
2022-09-22T08:11:19.188Z,6.13
2022-09-22T08:14:01.380Z,6.20
2022-09-22T08:16:32.024Z,6.70
2022-09-22T08:19:10.680Z,7.20
2022-09-22T08:21:48.041Z,6.95
2022-09-22T08:24:21.315Z,7.00
2022-09-22T08:26:50.556Z,6.30
2022-09-22T08:29:18.085Z,6.10
2022-09-22T08:31:47.019Z,5.50
2022-09-22T08:34:16.576Z,5.70
2022-09-22T08:36:46.220Z,6.10
2022-09-22T08:39:14.614Z,4.88
2022-09-22T08:41:47.910Z,4.63
2022-09-22T08:44:26.081Z,7.18
2022-09-22T08:46:56.476Z,5.85
2022-09-22T08:50:01.391Z,5.30
2022-09-22T08:52:38.938Z,4.88
2022-09-22T08:55:17.834Z,4.45
2022-09-22T08:58:09.456Z,4.03
2022-09-22T09:00:42.927Z,4.00
2022-09-22T09:03:43.303Z,3.35
2022-09-22T09:06:52.948Z,3.40
2022-09-22T09:09:38.964Z,2.95
2022-09-22T09:12:24.219Z,2.55
2022-09-22T09:15:26.532Z,2.60
2022-09-22T09:17:59.133Z,2.65
2022-09-22T09:20:38.883Z,2.80
2022-09-22T09:23:21.395Z,2.40
2022-09-22T09:25:55.318Z,2.60
2022-09-22T09:28:31.781Z,2.83
2022-09-22T09:31:08.678Z,2.78
2022-09-22T09:33:46.767Z,2.10
2022-09-22T09:38:52.889Z,2.28
2022-09-22T09:41:24.575Z,2.60
2022-09-22T09:43:54.427Z,2.25
2022-09-22T09:46:39.800Z,2.47
2022-09-22T09:49:19.291Z,3.13
2022-09-22T09:51:52.273Z,2.67
2022-09-22T09:54:20.503Z,2.50
2022-09-22T09:59:58.407Z,2.30
2022-09-22T10:02:30.023Z,2.47
2022-09-22T10:05:01.273Z,2.40
2022-09-22T10:07:41.728Z,2.35
2022-09-22T10:10:38.202Z,2.05
2022-09-22T10:13:05.646Z,2.30
2022-09-22T10:15:38.677Z,2.40
2022-09-22T10:18:24.750Z,2.33
2022-09-22T10:21:16.521Z,2.20
2022-09-22T10:23:48.927Z,2.10
2022-09-22T10:26:30.169Z,2.20
2022-09-22T10:29:12.436Z,1.95
2022-09-22T10:31:41.813Z,2.00
2022-09-22T10:34:32.325Z,2.20
2022-09-22T10:37:01.806Z,2.30
2022-09-22T10:39:39.940Z,1.90
2022-09-22T10:44:48.846Z,2.28
2022-09-22T10:47:29.682Z,2.20
2022-09-22T10:50:31.283Z,2.00
2022-09-22T10:53:12.716Z,2.20
2022-09-22T10:56:08.977Z,2.20
2022-09-22T10:59:04.140Z,2.15
2022-09-22T11:01:34.716Z,1.95
2022-09-22T11:04:12.525Z,2.47
2022-09-22T11:07:09.208Z,1.95
2022-09-22T11:10:20.884Z,1.77
2022-09-22T11:13:16.189Z,2.00
2022-09-22T11:16:06.564Z,2.30
2022-09-22T11:18:49.662Z,2.10
2022-09-22T11:21:52.636Z,2.10
2022-09-22T11:24:53.021Z,2.25
2022-09-22T11:27:36.350Z,1.90
2022-09-22T11:30:28.649Z,2.00
2022-09-22T11:33:00.527Z,2.05
2022-09-22T11:35:35.600Z,1.88
2022-09-22T11:38:23.787Z,1.90
2022-09-22T11:41:10.496Z,1.67
2022-09-22T11:44:03.899Z,2.30
2022-09-22T11:46:59.104Z,2.10
2022-09-22T11:49:35.719Z,1.95
2022-09-22T11:52:15.084Z,2.17
2022-09-22T11:55:00.446Z,2.47
2022-09-22T11:57:34.685Z,2.03
2022-09-22T12:00:18.866Z,2.30
2022-09-22T12:03:26.087Z,2.55
2022-09-22T12:06:05.190Z,2.00
2022-09-22T12:08:44.585Z,2.40
2022-09-22T12:11:14.947Z,2.50
2022-09-22T12:13:47.129Z,2.28
2022-09-22T12:16:47.785Z,2.35
2022-09-22T12:19:21.828Z,2.53
2022-09-22T12:22:12.959Z,2.75
2022-09-22T12:24:40.433Z,2.67
2022-09-22T12:27:16.049Z,2.80
2022-09-22T12:29:44.464Z,2.55
2022-09-22T12:32:24.991Z,3.00
2022-09-22T12:34:56.150Z,3.00
2022-09-22T12:37:33.322Z,2.45
2022-09-22T12:40:14.973Z,2.83
2022-09-22T12:42:48.943Z,2.38
2022-09-22T12:45:31.768Z,2.58
2022-09-22T12:48:05.884Z,2.30
2022-09-22T12:50:41.167Z,2.00
2022-09-22T12:53:21.599Z,1.90
2022-09-22T12:55:50.131Z,1.98
2022-09-22T12:58:20.436Z,1.98
2022-09-22T13:00:56.213Z,1.90
2022-09-22T13:03:26.811Z,1.90
2022-09-22T13:06:24.217Z,1.80
2022-09-22T13:08:54.837Z,2.10
2022-09-22T13:11:59.956Z,1.83
2022-09-22T13:15:01.264Z,1.80
2022-09-22T13:17:47.042Z,1.85
2022-09-22T13:20:24.126Z,2.00
2022-09-22T13:22:52.157Z,1.70
2022-09-22T13:25:22.973Z,1.58
2022-09-22T13:28:02.977Z,1.80
2022-09-22T13:30:31.972Z,1.85
2022-09-22T13:33:00.074Z,1.90
2022-09-22T13:35:35.976Z,2.15
2022-09-22T13:38:03.807Z,2.50
2022-09-22T13:40:34.718Z,2.20
2022-09-22T13:43:08.693Z,2.00
2022-09-22T13:45:39.590Z,1.77
2022-09-22T13:48:13.966Z,2.10
2022-09-22T13:51:01.235Z,2.10
2022-09-22T13:53:32.219Z,2.10
2022-09-22T13:56:00.015Z,2.25
2022-09-22T13:58:35.519Z,2.20
2022-09-22T14:01:19.854Z,1.90
2022-09-22T14:03:48.903Z,2.00
2022-09-22T14:06:19.980Z,2.08
2022-09-22T14:08:49.524Z,1.73
2022-09-22T14:11:25.574Z,1.70
2022-09-22T14:13:59.976Z,1.60
2022-09-22T14:16:42.437Z,2.10
2022-09-22T14:19:19.500Z,1.70
2022-09-22T14:21:55.341Z,1.80
2022-09-22T14:24:23.956Z,1.83
2022-09-22T14:27:03.690Z,1.90
2022-09-22T14:29:38.221Z,2.03
2022-09-22T14:32:08.350Z,1.85
2022-09-22T14:34:39.959Z,1.70
2022-09-22T14:40:04.904Z,1.52
2022-09-22T14:42:33.965Z,2.20
2022-09-22T14:45:14.794Z,1.88
2022-09-22T14:47:43.066Z,1.70
2022-09-22T14:51:08.259Z,1.73
2022-09-22T14:53:48.091Z,1.80
2022-09-22T14:56:22.923Z,1.60
2022-09-22T14:58:53.127Z,1.90
2022-09-22T15:01:47.781Z,1.80
2022-09-22T15:04:27.273Z,1.75
2022-09-22T15:06:59.110Z,1.50
2022-09-22T15:09:38.683Z,1.70
2022-09-22T15:12:06.742Z,1.60
2022-09-22T15:14:43.045Z,1.85
2022-09-22T15:17:55.841Z,1.92
2022-09-22T15:20:26.865Z,1.75
2022-09-22T15:22:59.591Z,2.00
2022-09-22T15:25:27.498Z,1.70
2022-09-22T15:27:54.927Z,2.30
2022-09-22T15:30:22.593Z,2.55
2022-09-22T15:32:50.147Z,2.05
2022-09-22T15:35:18.423Z,2.08
2022-09-22T15:40:20.554Z,2.40
2022-09-22T15:43:11.273Z,2.10
2022-09-22T15:45:37.742Z,2.28
2022-09-22T15:50:33.668Z,2.88
2022-09-22T15:53:01.102Z,3.08
2022-09-22T15:55:29.295Z,3.13
2022-09-22T15:58:08.985Z,3.17
2022-09-22T16:00:36.523Z,2.40
2022-09-22T16:03:22.301Z,2.15
2022-09-22T16:05:56.951Z,2.00
2022-09-22T16:08:35.334Z,1.70
2022-09-22T16:11:03.346Z,1.90
2022-09-22T16:13:34.644Z,2.10
2022-09-22T16:16:05.357Z,2.00
2022-09-22T16:18:33.096Z,1.85
2022-09-22T16:21:16.646Z,1.63
2022-09-22T16:23:44.111Z,1.92
2022-09-22T16:26:11.869Z,2.35
2022-09-22T16:28:39.558Z,2.00
2022-09-22T16:31:08.743Z,1.83
2022-09-22T16:33:36.259Z,2.28
2022-09-22T16:36:04.591Z,2.10
2022-09-22T16:38:33.742Z,1.50
2022-09-22T16:41:07.697Z,2.22
2022-09-22T16:43:38.297Z,1.98
2022-09-22T16:46:24.558Z,2.53
2022-09-22T16:48:55.781Z,1.88
2022-09-22T16:51:23.277Z,1.90
2022-09-22T16:53:52.621Z,2.63
2022-09-22T16:56:22.148Z,1.35
2022-09-22T16:58:50.107Z,1.60
2022-09-22T17:01:24.236Z,1.20
2022-09-22T17:03:54.811Z,1.40
2022-09-22T17:06:25.144Z,1.55
2022-09-22T17:08:57.296Z,1.23
2022-09-22T17:11:30.071Z,1.35
2022-09-22T17:14:03.088Z,1.83
2022-09-22T17:16:35.713Z,1.40
2022-09-22T17:19:06.373Z,1.50
2022-09-22T17:21:37.197Z,1.50
2022-09-22T17:24:06.554Z,1.45
2022-09-22T17:26:37.526Z,1.30
2022-09-22T17:29:06.627Z,1.70
2022-09-22T17:31:36.337Z,1.50
2022-09-22T17:34:06.854Z,1.40
2022-09-22T17:36:34.693Z,1.50
2022-09-22T17:39:02.109Z,1.70
2022-09-22T17:41:32.810Z,1.63
2022-09-22T17:44:03.003Z,1.80
2022-09-22T17:46:33.097Z,1.48
2022-09-22T17:49:19.451Z,1.70
2022-09-22T17:52:09.006Z,1.70
2022-09-22T17:54:56.896Z,1.67
2022-09-22T17:59:53.359Z,1.70
2022-09-22T18:04:50.609Z,1.67
2022-09-22T18:07:21.535Z,1.63
2022-09-22T18:09:52.244Z,2.00
2022-09-22T18:12:22.934Z,1.98
2022-09-22T18:14:52.581Z,2.20
2022-09-22T18:17:23.177Z,2.00
2022-09-22T18:19:54.272Z,2.15
2022-09-22T18:22:22.258Z,2.22
2022-09-22T18:24:51.345Z,2.42
2022-09-22T18:27:22.011Z,2.35
2022-09-22T18:29:53.194Z,2.20
2022-09-22T18:32:21.478Z,2.47
2022-09-22T18:34:51.139Z,2.67
2022-09-22T18:37:18.808Z,2.60
2022-09-22T18:39:47.000Z,2.78
2022-09-22T18:44:41.757Z,2.30
2022-09-22T18:47:14.362Z,2.13
2022-09-22T18:49:45.038Z,2.20
2022-09-22T18:52:12.467Z,2.35
2022-09-22T18:54:43.877Z,2.22
2022-09-22T18:57:13.143Z,2.17
2022-09-22T18:59:40.827Z,2.47
2022-09-22T19:02:11.885Z,2.72
2022-09-22T19:04:39.964Z,2.70
2022-09-22T19:07:27.158Z,2.53
2022-09-22T19:09:54.680Z,2.83
2022-09-22T19:12:22.123Z,2.50
2022-09-22T19:14:50.034Z,2.80
2022-09-22T19:17:17.979Z,2.92
2022-09-22T19:19:48.922Z,2.88
2022-09-22T19:22:16.945Z,2.55
2022-09-22T19:24:45.998Z,2.50
2022-09-22T19:27:16.343Z,2.85
2022-09-22T19:29:43.953Z,2.75
2022-09-22T19:32:11.478Z,2.50
2022-09-22T19:34:39.044Z,2.67
2022-09-22T19:37:07.043Z,2.60
2022-09-22T19:39:35.781Z,2.90
2022-09-22T19:42:03.426Z,3.03
2022-09-22T19:44:32.366Z,2.88
2022-09-22T19:47:00.223Z,2.95
2022-09-22T19:49:27.904Z,3.08
2022-09-22T19:51:55.425Z,3.00
2022-09-22T19:54:22.976Z,2.92
2022-09-22T19:56:50.509Z,3.22
2022-09-22T19:59:19.749Z,3.20
2022-09-22T20:01:47.999Z,3.53
2022-09-22T20:04:25.623Z,3.33
2022-09-22T20:06:53.452Z,3.47
2022-09-22T20:09:21.722Z,3.60
2022-09-22T20:19:31.274Z,15.48
2022-09-22T20:22:25.324Z,15.65
2022-09-22T20:24:54.722Z,11.60
2022-09-22T20:27:27.920Z,11.75
2022-09-22T20:29:57.454Z,11.23
2022-09-22T20:32:26.819Z,10.90
2022-09-22T20:34:55.589Z,8.45
2022-09-22T20:37:24.891Z,10.40
2022-09-22T20:39:53.122Z,13.52
2022-09-22T20:44:49.170Z,15.90
2022-09-22T20:47:18.746Z,13.90
2022-09-22T20:49:51.967Z,12.00
2022-09-22T20:52:20.640Z,8.23
2022-09-22T20:54:48.811Z,7.25
2022-09-22T20:57:19.105Z,4.60
2022-09-22T20:59:47.571Z,4.18
2022-09-22T21:02:15.590Z,4.07
2022-09-22T21:04:43.119Z,3.55
2022-09-22T21:07:13.923Z,3.80
2022-09-22T21:10:00.131Z,3.95
2022-09-22T21:12:31.266Z,3.58
2022-09-22T21:14:59.357Z,3.50
2022-09-22T21:17:31.205Z,3.38
2022-09-22T21:19:58.633Z,3.25
2022-09-22T21:22:30.180Z,3.58
2022-09-22T21:24:57.932Z,3.50
2022-09-22T21:27:25.487Z,3.53
2022-09-22T21:29:53.449Z,3.53
2022-09-22T21:32:20.904Z,3.13
2022-09-22T21:34:48.505Z,3.90
2022-09-22T21:37:16.051Z,4.35
2022-09-22T21:39:46.308Z,3.67
2022-09-22T21:42:13.764Z,3.80
2022-09-22T21:44:41.541Z,3.92
2022-09-22T21:47:09.028Z,3.78
2022-09-22T21:49:36.471Z,3.35
2022-09-22T21:52:04.115Z,3.28
2022-09-22T21:54:31.573Z,3.90
2022-09-22T21:56:59.151Z,3.47
2022-09-22T21:59:26.603Z,3.53
2022-09-22T22:01:54.137Z,3.63
2022-09-22T22:04:21.650Z,3.80
2022-09-22T22:06:49.138Z,4.00
2022-09-22T22:09:21.982Z,3.77
2022-09-22T22:11:53.197Z,3.85
2022-09-22T22:14:22.404Z,3.85
2022-09-22T22:16:52.376Z,3.78
2022-09-22T22:19:22.192Z,3.53
2022-09-22T22:21:51.017Z,3.88
2022-09-22T22:24:42.215Z,3.70
2022-09-22T22:27:10.744Z,3.95
2022-09-22T22:29:38.864Z,3.95
2022-09-22T22:32:08.586Z,4.28
2022-09-22T22:34:36.510Z,4.00
2022-09-22T22:37:07.042Z,4.28
2022-09-22T22:39:34.680Z,4.30
2022-09-22T22:42:02.294Z,4.57
2022-09-22T22:44:29.721Z,4.07
2022-09-22T22:46:57.239Z,4.97
2022-09-22T22:49:24.860Z,4.90
2022-09-22T22:51:52.474Z,4.68
2022-09-22T22:54:19.998Z,5.00
2022-09-22T22:56:50.925Z,4.78
2022-09-22T22:59:19.368Z,4.72
2022-09-22T23:01:46.820Z,5.10
2022-09-22T23:04:16.604Z,4.55
2022-09-22T23:06:44.577Z,5.10
2022-09-22T23:09:17.215Z,5.68
2022-09-22T23:11:46.255Z,5.30
2022-09-22T23:14:16.256Z,5.00
2022-09-22T23:16:46.239Z,5.82
2022-09-22T23:19:18.098Z,5.85
2022-09-22T23:21:46.420Z,5.70
2022-09-22T23:24:16.203Z,6.22
2022-09-22T23:26:45.258Z,6.53
2022-09-22T23:29:13.041Z,6.22
2022-09-22T23:31:40.498Z,6.30
2022-09-22T23:34:08.110Z,6.65
2022-09-22T23:36:36.267Z,6.47
2022-09-22T23:41:34.735Z,6.53
2022-09-22T23:44:03.111Z,6.35
2022-09-22T23:46:31.127Z,5.72
2022-09-22T23:49:00.082Z,6.20
2022-09-22T23:51:28.253Z,7.10
2022-09-22T23:53:56.239Z,6.72
2022-09-22T23:58:52.036Z,6.65
